createdAt,value
2022-10-11T00:02:02.586Z,6.46
2022-10-11T00:04:29.188Z,6.39
2022-10-11T00:06:55.740Z,6.36
2022-10-11T00:09:23.406Z,6.34
2022-10-11T00:11:49.924Z,6.33
2022-10-11T00:14:16.471Z,6.31
2022-10-11T00:16:44.586Z,6.27
2022-10-11T00:19:11.515Z,6.28
2022-10-11T00:21:38.290Z,6.23
2022-10-11T00:24:05.401Z,6.22
2022-10-11T00:26:31.888Z,6.15
2022-10-11T00:28:58.519Z,6.18
2022-10-11T00:31:25.266Z,6.15
2022-10-11T00:33:53.181Z,6.15
2022-10-11T00:36:19.901Z,6.14
2022-10-11T00:38:46.985Z,6.14
2022-10-11T00:41:14.987Z,6.07
2022-10-11T00:43:41.724Z,6.11
2022-10-11T00:46:27.661Z,6.08
2022-10-11T00:49:00.617Z,6.06
2022-10-11T00:51:39.900Z,6.03
2022-10-11T00:54:07.823Z,5.96
2022-10-11T00:56:37.688Z,5.97
2022-10-11T00:59:11.886Z,5.94
2022-10-11T01:01:38.580Z,5.95
2022-10-11T01:04:05.698Z,5.95
2022-10-11T01:06:33.308Z,5.90
2022-10-11T01:09:00.316Z,5.88
2022-10-11T01:11:29.812Z,5.86
2022-10-11T01:14:30.478Z,5.87
2022-10-11T01:17:02.963Z,5.85
2022-10-11T01:19:44.342Z,5.84
2022-10-11T01:22:25.973Z,5.81
2022-10-11T01:25:04.598Z,5.75
2022-10-11T01:27:42.214Z,5.73
2022-10-11T01:30:18.294Z,5.70
2022-10-11T01:33:21.016Z,5.71
2022-10-11T01:35:56.535Z,5.70
2022-10-11T01:38:35.387Z,5.64
2022-10-11T01:41:25.653Z,5.64
2022-10-11T01:43:57.769Z,5.61
2022-10-11T01:46:24.857Z,5.61
2022-10-11T01:48:54.471Z,5.56
2022-10-11T01:51:37.013Z,5.54
2022-10-11T01:54:56.451Z,5.56
2022-10-11T01:57:46.886Z,5.51
2022-10-11T02:00:20.387Z,5.49
2022-10-11T02:02:50.060Z,5.49
2022-10-11T02:05:35.475Z,5.44
2022-10-11T02:08:30.971Z,5.45
2022-10-11T02:11:10.759Z,5.44
2022-10-11T02:13:46.519Z,5.41
2022-10-11T02:16:17.940Z,5.39
2022-10-11T02:18:49.838Z,5.39
2022-10-11T02:21:20.757Z,5.36
2022-10-11T02:23:52.090Z,5.32
2022-10-11T02:26:21.177Z,5.32
2022-10-11T02:28:50.301Z,5.32
2022-10-11T02:31:18.170Z,5.32
2022-10-11T02:34:00.252Z,5.31
2022-10-11T02:36:37.333Z,5.27
2022-10-11T02:39:14.323Z,5.27
2022-10-11T02:41:43.255Z,5.27
2022-10-11T02:44:15.885Z,5.24
2022-10-11T02:46:45.429Z,5.20
2022-10-11T02:49:13.238Z,5.18
2022-10-11T02:51:40.034Z,5.20
2022-10-11T02:54:07.693Z,5.19
2022-10-11T02:56:34.251Z,5.14
2022-10-11T02:59:00.733Z,5.11
2022-10-11T03:01:27.565Z,5.10
2022-10-11T03:03:54.202Z,5.05
2022-10-11T03:06:22.296Z,5.08
2022-10-11T03:08:48.874Z,5.06
2022-10-11T03:11:15.489Z,5.12
2022-10-11T03:13:41.954Z,5.06
2022-10-11T03:16:08.912Z,5.07
2022-10-11T03:18:35.568Z,4.98
2022-10-11T03:21:02.271Z,5.00
2022-10-11T03:23:28.943Z,5.01
2022-10-11T03:25:55.625Z,4.98
2022-10-11T03:28:22.470Z,4.98
2022-10-11T03:30:50.442Z,4.96
2022-10-11T03:33:17.514Z,4.85
2022-10-11T03:35:45.762Z,4.95
2022-10-11T03:38:18.564Z,4.96
2022-10-11T03:40:45.175Z,4.96
2022-10-11T03:43:11.842Z,4.96
2022-10-11T03:45:39.016Z,4.89
2022-10-11T03:48:05.895Z,4.88
2022-10-11T03:50:32.619Z,4.91
2022-10-11T03:52:59.110Z,4.81
2022-10-11T03:55:25.780Z,4.85
2022-10-11T03:57:52.392Z,4.84
2022-10-11T04:00:18.893Z,4.81
2022-10-11T04:02:45.372Z,4.80
2022-10-11T04:05:12.720Z,4.84
2022-10-11T04:07:40.140Z,4.78
2022-10-11T04:10:07.759Z,4.80
2022-10-11T04:12:34.884Z,4.79
2022-10-11T04:15:01.333Z,4.82
2022-10-11T04:17:27.929Z,4.74
2022-10-11T04:19:54.427Z,4.78
2022-10-11T04:22:20.929Z,4.79
2022-10-11T04:24:47.482Z,4.75
2022-10-11T04:27:14.056Z,4.75
2022-10-11T04:29:40.520Z,4.71
2022-10-11T04:32:07.173Z,4.70
2022-10-11T04:34:33.733Z,4.68
2022-10-11T04:37:00.328Z,4.67
2022-10-11T04:39:26.898Z,4.68
2022-10-11T04:41:53.370Z,4.70
2022-10-11T04:44:19.938Z,4.64
2022-10-11T04:46:46.402Z,4.64
2022-10-11T04:49:15.127Z,4.65
2022-10-11T04:51:41.638Z,4.64
2022-10-11T04:54:08.133Z,4.63
2022-10-11T04:56:34.677Z,4.64
2022-10-11T04:59:01.308Z,4.57
2022-10-11T05:01:28.096Z,4.58
2022-10-11T05:03:54.702Z,4.59
2022-10-11T05:06:21.326Z,4.56
2022-10-11T05:08:48.293Z,4.55
2022-10-11T05:11:16.391Z,4.51
2022-10-11T05:13:43.953Z,4.54
2022-10-11T05:16:11.914Z,4.50
2022-10-11T05:18:39.647Z,4.51
2022-10-11T05:21:14.907Z,4.51
2022-10-11T05:23:41.817Z,4.48
2022-10-11T05:26:15.655Z,4.42
2022-10-11T05:28:42.592Z,4.46
2022-10-11T05:31:09.318Z,4.43
2022-10-11T05:33:36.138Z,4.40
2022-10-11T05:36:03.506Z,4.38
2022-10-11T05:38:30.302Z,4.41
2022-10-11T05:41:00.313Z,4.37
2022-10-11T05:43:27.614Z,4.33
2022-10-11T05:45:54.685Z,4.34
2022-10-11T05:48:21.884Z,4.39
2022-10-11T05:50:48.487Z,4.36
2022-10-11T05:53:14.962Z,4.36
2022-10-11T05:55:43.347Z,4.34
2022-10-11T05:58:14.913Z,4.35
2022-10-11T06:00:41.405Z,4.32
2022-10-11T06:03:11.024Z,4.34
2022-10-11T06:05:37.612Z,4.29
2022-10-11T06:08:06.684Z,4.28
2022-10-11T06:10:33.348Z,4.25
2022-10-11T06:12:59.832Z,4.31
2022-10-11T06:15:26.407Z,4.31
2022-10-11T06:17:53.213Z,4.27
2022-10-11T06:20:19.823Z,4.28
2022-10-11T06:22:46.319Z,4.30
2022-10-11T06:25:12.836Z,4.32
2022-10-11T06:27:39.256Z,4.32
2022-10-11T06:30:07.430Z,4.34
2022-10-11T06:32:33.973Z,4.33
2022-10-11T06:35:00.614Z,4.35
2022-10-11T06:37:27.236Z,4.37
2022-10-11T06:39:53.839Z,4.39
2022-10-11T06:42:20.338Z,4.43
2022-10-11T06:44:46.997Z,4.46
2022-10-11T06:47:13.656Z,4.42
2022-10-11T06:49:40.401Z,4.48
2022-10-11T06:52:07.036Z,4.53
2022-10-11T06:54:33.565Z,4.48
2022-10-11T06:57:00.075Z,4.53
2022-10-11T06:59:26.778Z,4.59
2022-10-11T07:01:53.320Z,4.60
2022-10-11T07:04:19.841Z,4.62
2022-10-11T07:06:46.265Z,4.58
2022-10-11T07:09:12.796Z,4.61
2022-10-11T07:11:39.228Z,4.59
2022-10-11T07:14:07.980Z,4.74
2022-10-11T07:16:37.885Z,4.66
2022-10-11T07:19:06.550Z,4.76
2022-10-11T07:21:34.602Z,4.76
2022-10-11T07:24:01.868Z,4.78
2022-10-11T07:26:33.831Z,4.82
2022-10-11T07:29:05.205Z,4.87
2022-10-11T07:31:31.744Z,5.18
2022-10-11T07:33:58.219Z,5.30
2022-10-11T07:36:25.602Z,5.35
2022-10-11T07:38:52.127Z,5.43
2022-10-11T07:41:19.335Z,5.54
2022-10-11T07:43:47.901Z,5.50
2022-10-11T07:46:15.229Z,5.76
2022-10-11T07:48:42.295Z,6.01
2022-10-11T07:51:11.754Z,6.08
2022-10-11T07:53:40.230Z,6.18
2022-10-11T07:56:08.393Z,6.33
2022-10-11T07:58:35.610Z,6.38
2022-10-11T08:01:02.179Z,6.48
2022-10-11T08:03:29.658Z,6.53
2022-10-11T08:06:00.608Z,6.56
2022-10-11T08:08:27.459Z,6.58
2022-10-11T08:10:54.165Z,6.68
2022-10-11T08:13:20.657Z,6.80
2022-10-11T08:15:47.071Z,6.96
2022-10-11T08:18:13.556Z,6.98
2022-10-11T08:20:40.449Z,6.94
2022-10-11T08:23:07.238Z,7.18
2022-10-11T08:25:39.387Z,7.31
2022-10-11T08:28:06.849Z,7.35
2022-10-11T08:30:35.799Z,7.48
2022-10-11T08:33:07.564Z,7.59
2022-10-11T08:35:36.278Z,7.67
2022-10-11T08:38:03.306Z,7.72
2022-10-11T08:40:34.987Z,7.86
2022-10-11T08:43:08.185Z,7.89
2022-10-11T08:45:50.941Z,8.02
2022-10-11T08:48:20.790Z,8.17
2022-10-11T08:50:51.086Z,8.29
2022-10-11T08:53:42.538Z,8.51
2022-10-11T08:56:13.223Z,8.49
2022-10-11T08:58:55.893Z,9.88
2022-10-11T09:01:25.944Z,10.39
2022-10-11T09:03:53.071Z,10.59
2022-10-11T09:06:31.650Z,10.99
2022-10-11T09:09:18.173Z,11.44
2022-10-11T09:12:02.787Z,11.82
2022-10-11T09:14:39.207Z,11.78
2022-10-11T09:17:15.588Z,11.89
2022-10-11T09:19:52.160Z,12.34
2022-10-11T09:22:43.327Z,12.84
2022-10-11T09:25:24.642Z,13.14
2022-10-11T09:28:38.894Z,13.25
2022-10-11T09:31:09.919Z,13.25
2022-10-11T09:33:40.292Z,13.24
2022-10-11T09:36:23.031Z,13.29
2022-10-11T09:39:07.050Z,13.65
2022-10-11T09:41:42.797Z,14.00
2022-10-11T09:44:21.565Z,14.03
2022-10-11T09:46:49.666Z,13.88
2022-10-11T09:49:19.248Z,13.94
2022-10-11T09:51:52.469Z,13.95
2022-10-11T09:54:22.295Z,13.99
2022-10-11T09:56:48.780Z,13.98
2022-10-11T09:59:29.457Z,14.01
2022-10-11T10:02:14.681Z,14.01
2022-10-11T10:05:21.749Z,14.09
2022-10-11T10:08:08.393Z,14.26
2022-10-11T10:10:46.182Z,14.35
2022-10-11T10:13:43.750Z,14.38
2022-10-11T10:16:28.764Z,14.57
2022-10-11T10:18:58.384Z,14.79
2022-10-11T10:21:37.135Z,14.84
2022-10-11T10:24:40.754Z,14.96
2022-10-11T10:27:14.829Z,15.05
2022-10-11T10:29:41.751Z,15.18
2022-10-11T10:32:21.043Z,15.38
2022-10-11T10:34:50.435Z,15.44
2022-10-11T10:37:43.043Z,15.50
2022-10-11T10:40:16.783Z,15.49
2022-10-11T10:42:43.248Z,15.58
2022-10-11T10:45:21.493Z,15.74
2022-10-11T10:47:54.501Z,15.86
2022-10-11T10:50:42.060Z,15.92
2022-10-11T10:53:42.101Z,15.87
2022-10-11T10:56:19.817Z,15.78
2022-10-11T10:59:24.023Z,15.66
2022-10-11T11:02:06.737Z,15.71
2022-10-11T11:04:50.821Z,16.01
2022-10-11T11:07:36.938Z,16.20
2022-10-11T11:10:25.373Z,16.26
2022-10-11T11:13:10.498Z,16.23
2022-10-11T11:15:47.880Z,16.09
2022-10-11T11:18:25.864Z,16.09
2022-10-11T11:21:01.427Z,16.13
2022-10-11T11:23:52.636Z,16.20
2022-10-11T11:26:44.321Z,16.45
2022-10-11T11:29:34.330Z,16.43
2022-10-11T11:32:25.747Z,16.45
2022-10-11T11:35:01.193Z,16.39
2022-10-11T11:37:36.288Z,16.32
2022-10-11T11:40:27.152Z,16.45
2022-10-11T11:42:59.511Z,16.70
2022-10-11T11:45:45.155Z,16.63
2022-10-11T11:48:25.755Z,16.87
2022-10-11T11:51:17.757Z,17.04
2022-10-11T11:53:53.359Z,17.19
2022-10-11T11:56:44.736Z,17.22
2022-10-11T11:59:42.128Z,17.53
2022-10-11T12:02:43.694Z,17.43
2022-10-11T12:05:13.582Z,17.25
2022-10-11T12:08:06.605Z,17.45
2022-10-11T12:10:37.744Z,17.54
2022-10-11T12:13:17.216Z,17.66
2022-10-11T12:15:59.266Z,17.93
2022-10-11T12:18:27.570Z,18.23
2022-10-11T12:21:18.600Z,18.29
2022-10-11T12:23:47.740Z,18.55
2022-10-11T12:26:29.686Z,18.68
2022-10-11T12:29:20.757Z,18.81
2022-10-11T12:31:51.610Z,18.55
2022-10-11T12:37:19.474Z,18.32
2022-10-11T12:40:00.093Z,18.86
2022-10-11T12:42:36.967Z,19.16
2022-10-11T12:45:13.169Z,19.19
2022-10-11T12:48:01.515Z,19.46
2022-10-11T12:50:37.013Z,18.96
2022-10-11T12:53:33.124Z,19.43
2022-10-11T12:56:26.359Z,19.71
2022-10-11T12:59:02.998Z,19.71
2022-10-11T13:01:36.853Z,19.91
2022-10-11T13:04:09.853Z,19.99
2022-10-11T13:06:45.307Z,19.35
2022-10-11T13:09:18.075Z,19.28
2022-10-11T13:12:13.677Z,18.89
2022-10-11T13:14:48.331Z,18.59
2022-10-11T13:17:34.471Z,19.10
2022-10-11T13:20:17.325Z,19.86
2022-10-11T13:22:47.470Z,19.90
2022-10-11T13:25:29.872Z,19.75
2022-10-11T13:27:59.531Z,20.14
2022-10-11T13:30:32.039Z,20.21
2022-10-11T13:33:00.067Z,20.40
2022-10-11T13:35:33.134Z,20.45
2022-10-11T13:38:00.430Z,20.54
2022-10-11T13:40:28.130Z,20.55
2022-10-11T13:42:55.252Z,19.67
2022-10-11T13:45:24.375Z,20.00
2022-10-11T13:47:53.110Z,19.84
2022-10-11T13:50:26.471Z,20.24
2022-10-11T13:52:56.320Z,20.15
2022-10-11T13:55:29.226Z,20.31
2022-10-11T13:57:57.687Z,20.51
2022-10-11T14:00:34.942Z,20.76
2022-10-11T14:03:17.143Z,20.76
2022-10-11T14:05:56.251Z,20.92
2022-10-11T14:08:34.351Z,20.34
2022-10-11T14:11:06.068Z,20.58
2022-10-11T14:13:50.039Z,21.23
2022-10-11T14:16:16.431Z,21.48
2022-10-11T14:18:51.191Z,21.58
2022-10-11T14:21:21.107Z,21.67
2022-10-11T14:23:51.015Z,21.68
2022-10-11T14:26:19.188Z,21.78
2022-10-11T14:28:48.822Z,21.64
2022-10-11T14:31:15.487Z,21.73
2022-10-11T14:33:42.125Z,21.77
2022-10-11T14:36:08.931Z,21.83
2022-10-11T14:38:35.596Z,21.83
2022-10-11T14:41:02.191Z,21.80
2022-10-11T14:43:28.631Z,21.69
2022-10-11T14:45:55.086Z,21.70
2022-10-11T14:48:43.164Z,21.40
2022-10-11T14:51:13.514Z,21.55
2022-10-11T14:53:46.117Z,21.24
2022-10-11T14:56:17.736Z,21.32
2022-10-11T14:58:47.354Z,21.31
2022-10-11T15:01:14.636Z,21.35
2022-10-11T15:03:41.515Z,21.29
2022-10-11T15:06:16.493Z,21.20
2022-10-11T15:08:42.987Z,21.18
2022-10-11T15:11:16.647Z,21.03
2022-10-11T15:13:43.132Z,20.98
2022-10-11T15:16:16.239Z,20.79
2022-10-11T15:18:44.090Z,20.63
2022-10-11T15:21:14.540Z,20.47
2022-10-11T15:23:40.989Z,20.14
2022-10-11T15:26:09.695Z,19.99
2022-10-11T15:28:36.292Z,19.82
2022-10-11T15:31:02.955Z,19.66
2022-10-11T15:33:29.443Z,19.56
2022-10-11T15:35:55.961Z,19.43
2022-10-11T15:38:24.655Z,19.34
2022-10-11T15:40:52.438Z,19.24
2022-10-11T15:43:24.279Z,19.15
2022-10-11T15:45:51.469Z,19.01
2022-10-11T15:48:21.756Z,18.82
2022-10-11T15:50:49.981Z,18.89
2022-10-11T15:53:21.662Z,18.91
2022-10-11T15:55:50.567Z,18.92
2022-10-11T15:58:16.957Z,18.95
2022-10-11T16:00:45.756Z,18.92
2022-10-11T16:03:14.645Z,18.92
2022-10-11T16:05:42.529Z,18.87
2022-10-11T16:08:10.038Z,18.83
2022-10-11T16:10:37.511Z,18.73
2022-10-11T16:13:04.088Z,18.66
2022-10-11T16:15:31.146Z,18.57
2022-10-11T16:17:57.802Z,18.49
2022-10-11T16:20:25.826Z,18.42
2022-10-11T16:22:54.037Z,18.35
2022-10-11T16:25:24.671Z,18.23
2022-10-11T16:27:51.685Z,18.16
2022-10-11T16:30:19.627Z,18.04
2022-10-11T16:32:46.404Z,17.98
2022-10-11T16:35:14.464Z,17.90
2022-10-11T16:37:41.438Z,17.81
2022-10-11T16:40:09.643Z,17.73
2022-10-11T16:42:39.181Z,17.63
2022-10-11T16:45:06.781Z,17.51
2022-10-11T16:47:33.217Z,17.41
2022-10-11T16:50:00.201Z,17.28
2022-10-11T16:52:26.849Z,17.17
2022-10-11T16:54:53.305Z,17.08
2022-10-11T16:57:20.141Z,16.92
2022-10-11T16:59:46.899Z,16.84
2022-10-11T17:02:19.508Z,16.73
2022-10-11T17:04:46.575Z,16.62
2022-10-11T17:07:13.660Z,16.47
2022-10-11T17:09:44.009Z,16.40
2022-10-11T17:12:13.135Z,16.33
2022-10-11T17:14:40.709Z,16.23
2022-10-11T17:17:08.558Z,16.14
2022-10-11T17:19:44.873Z,16.06
2022-10-11T17:22:17.440Z,15.95
2022-10-11T17:24:44.243Z,15.83
2022-10-11T17:27:11.338Z,15.75
2022-10-11T17:29:38.302Z,15.69
2022-10-11T17:32:05.262Z,15.57
2022-10-11T17:34:31.992Z,15.47
2022-10-11T17:36:58.544Z,15.40
2022-10-11T17:39:25.847Z,15.31
2022-10-11T17:41:52.956Z,15.18
2022-10-11T17:44:20.351Z,15.15
2022-10-11T17:46:47.693Z,15.04
2022-10-11T17:49:17.117Z,14.98
2022-10-11T17:51:44.256Z,14.88
2022-10-11T17:54:13.049Z,14.81
2022-10-11T17:56:42.970Z,14.71
2022-10-11T17:59:16.024Z,14.62
2022-10-11T18:01:45.063Z,14.55
2022-10-11T18:04:16.604Z,14.49
2022-10-11T18:06:56.743Z,14.42
2022-10-11T18:09:25.133Z,14.32
2022-10-11T18:11:51.955Z,14.32
2022-10-11T18:14:19.098Z,14.25
2022-10-11T18:16:45.810Z,14.18
2022-10-11T18:19:13.697Z,14.08
2022-10-11T18:21:41.111Z,14.05
2022-10-11T18:24:12.570Z,14.00
2022-10-11T18:26:39.957Z,13.93
2022-10-11T18:29:06.904Z,13.85
2022-10-11T18:31:35.445Z,13.81
2022-10-11T18:34:03.595Z,13.72
2022-10-11T18:36:31.119Z,13.68
2022-10-11T18:39:01.109Z,13.62
2022-10-11T18:41:31.834Z,13.56
2022-10-11T18:44:02.222Z,13.51
2022-10-11T18:46:29.674Z,13.40
2022-10-11T18:48:57.372Z,13.36
2022-10-11T18:51:32.702Z,13.32
2022-10-11T18:54:00.013Z,13.23
2022-10-11T18:56:29.095Z,13.16
2022-10-11T18:58:57.307Z,13.09
2022-10-11T19:01:33.358Z,13.03
2022-10-11T19:04:01.736Z,12.98
2022-10-11T19:06:34.468Z,12.89
2022-10-11T19:09:06.522Z,12.82
2022-10-11T19:11:33.321Z,12.72
2022-10-11T19:14:09.806Z,12.71
2022-10-11T19:16:39.813Z,12.65
2022-10-11T19:19:07.580Z,12.58
2022-10-11T19:21:34.137Z,12.50
2022-10-11T19:24:00.596Z,12.44
2022-10-11T19:26:31.419Z,12.37
2022-10-11T19:29:04.038Z,12.33
2022-10-11T19:31:31.494Z,12.24
2022-10-11T19:33:58.628Z,12.18
2022-10-11T19:36:26.091Z,12.11
2022-10-11T19:38:56.865Z,12.06
2022-10-11T19:41:26.202Z,11.96
2022-10-11T19:43:53.707Z,11.89
2022-10-11T19:46:44.333Z,11.81
2022-10-11T19:49:08.898Z,11.73
2022-10-11T19:51:37.377Z,11.63
2022-10-11T19:54:06.498Z,11.59
2022-10-11T19:56:34.099Z,11.51
2022-10-11T19:59:01.943Z,11.46
2022-10-11T20:01:30.828Z,11.40
2022-10-11T20:04:05.920Z,11.34
2022-10-11T20:06:38.843Z,11.28
2022-10-11T20:11:53.728Z,11.12
2022-10-11T20:14:20.536Z,11.05
2022-10-11T20:16:50.136Z,11.01
2022-10-11T20:19:17.524Z,10.96
2022-10-11T20:21:45.237Z,10.89
2022-10-11T20:24:12.250Z,10.82
2022-10-11T20:26:39.358Z,10.75
2022-10-11T20:29:06.058Z,10.70
2022-10-11T20:31:35.203Z,10.61
2022-10-11T20:34:04.097Z,10.52
2022-10-11T20:36:31.794Z,10.52
2022-10-11T20:38:59.398Z,10.45
2022-10-11T20:41:34.408Z,10.41
2022-10-11T20:44:02.599Z,10.38
2022-10-11T20:46:32.346Z,10.28
2022-10-11T20:49:02.346Z,10.21
2022-10-11T20:51:30.750Z,10.21
2022-10-11T20:53:58.154Z,10.16
2022-10-11T20:56:24.947Z,10.11
2022-10-11T20:58:53.306Z,10.09
2022-10-11T21:01:23.003Z,10.00
2022-10-11T21:03:50.506Z,9.96
2022-10-11T21:06:17.010Z,9.90
2022-10-11T21:08:43.525Z,9.91
2022-10-11T21:11:10.594Z,9.83
2022-10-11T21:13:37.706Z,9.79
2022-10-11T21:16:06.632Z,9.75
2022-10-11T21:18:33.071Z,9.77
2022-10-11T21:21:08.378Z,9.70
2022-10-11T21:23:35.236Z,9.69
2022-10-11T21:26:03.463Z,9.67
2022-10-11T21:28:30.182Z,9.62
2022-10-11T21:31:06.095Z,9.56
2022-10-11T21:33:33.759Z,9.53
2022-10-11T21:36:13.402Z,9.48
2022-10-11T21:38:40.144Z,9.46
2022-10-11T21:41:18.111Z,9.37
2022-10-11T21:43:44.588Z,9.38
2022-10-11T21:46:12.918Z,9.33
2022-10-11T21:48:40.143Z,9.31
2022-10-11T21:51:07.112Z,9.26
2022-10-11T21:53:34.140Z,9.21
2022-10-11T21:56:01.267Z,9.14
2022-10-11T21:58:28.113Z,9.10
2022-10-11T22:00:55.007Z,9.08
2022-10-11T22:03:21.860Z,9.04
2022-10-11T22:05:48.570Z,9.05
2022-10-11T22:08:15.450Z,8.96
2022-10-11T22:10:53.314Z,8.95
2022-10-11T22:13:19.798Z,8.91
2022-10-11T22:15:46.298Z,8.85
2022-10-11T22:18:12.923Z,8.83
2022-10-11T22:20:39.423Z,8.81
2022-10-11T22:23:05.960Z,8.77
2022-10-11T22:25:37.145Z,8.74
2022-10-11T22:28:04.585Z,8.69
2022-10-11T22:30:31.677Z,8.68
2022-10-11T22:32:58.288Z,8.62
2022-10-11T22:35:24.751Z,8.60
2022-10-11T22:37:51.858Z,8.55
2022-10-11T22:40:19.315Z,8.51
2022-10-11T22:42:46.172Z,8.48
2022-10-11T22:45:12.651Z,8.46
2022-10-11T22:47:40.446Z,8.43
2022-10-11T22:50:07.069Z,8.41
2022-10-11T22:52:33.607Z,8.36
2022-10-11T22:55:00.023Z,8.39
2022-10-11T22:57:26.427Z,8.32
2022-10-11T22:59:52.865Z,8.31
2022-10-11T23:02:19.459Z,8.31
2022-10-11T23:04:45.915Z,8.32
2022-10-11T23:07:12.502Z,8.33
2022-10-11T23:09:38.953Z,8.33
2022-10-11T23:12:05.699Z,8.30
2022-10-11T23:14:32.143Z,8.30
2022-10-11T23:16:58.546Z,8.29
2022-10-11T23:19:25.026Z,8.24
2022-10-11T23:21:51.471Z,8.25
2022-10-11T23:24:17.924Z,8.28
2022-10-11T23:26:44.370Z,8.28
2022-10-11T23:29:10.865Z,8.27
2022-10-11T23:31:37.374Z,8.25
2022-10-11T23:34:03.989Z,8.25
2022-10-11T23:36:30.560Z,8.18
2022-10-11T23:38:58.429Z,8.20
2022-10-11T23:41:27.014Z,8.17
2022-10-11T23:43:53.648Z,8.18
2022-10-11T23:46:20.228Z,8.18
2022-10-11T23:48:46.708Z,8.17
2022-10-11T23:51:14.114Z,8.15
2022-10-11T23:53:40.717Z,8.12
2022-10-11T23:56:07.904Z,8.11
2022-10-11T23:58:34.411Z,8.09
